Time;durP1;ratioP1;P1;durP2;ratioP2;P2;SDS_P1;SDS_P2;PMS_P1;PMS_P2;Temp;Humidity;BMP_temperature;BMP_pressure;BME280_temperature;BME280_humidity;BME280_pressure;Samples;Min_cycle;Max_cycle;Signal;HPM_P1;HPM_P2
2021/05/08 00:01:07;;;;;;;7.43;3.75;;;13.30;69.50;;;;;;5003335;28;20120;-62
2021/05/08 00:03:34;;;;;;;7.45;4.18;;;13.30;69.70;;;;;;5005693;28;20516;-63
2021/05/08 00:06:01;;;;;;;10.77;3.97;;;13.30;69.70;;;;;;4987778;28;20040;-63
2021/05/08 00:08:27;;;;;;;8.95;4.13;;;13.30;69.80;;;;;;4999190;28;20089;-61
2021/05/08 00:10:52;;;;;;;10.90;3.95;;;13.30;69.90;;;;;;5001984;28;20034;-61
2021/05/08 00:13:18;;;;;;;13.68;4.03;;;13.30;70.00;;;;;;4998166;28;20994;-63
2021/05/08 00:15:43;;;;;;;8.55;4.20;;;13.20;70.10;;;;;;4997208;28;20541;-63
2021/05/08 00:18:09;;;;;;;11.18;4.05;;;13.20;70.20;;;;;;4998991;28;20609;-61
2021/05/08 00:20:34;;;;;;;8.82;4.30;;;13.20;70.30;;;;;;4988638;28;20046;-63
2021/05/08 00:23:00;;;;;;;10.45;4.07;;;13.20;70.40;;;;;;4999584;28;20026;-63
2021/05/08 00:25:25;;;;;;;10.73;3.92;;;13.20;70.40;;;;;;5003681;28;20030;-61
2021/05/08 00:27:51;;;;;;;13.05;3.63;;;13.10;70.40;;;;;;5003738;28;20797;-63
2021/05/08 00:30:17;;;;;;;9.32;4.38;;;13.10;70.50;;;;;;4999635;28;20034;-61
2021/05/08 00:32:43;;;;;;;11.30;4.32;;;13.10;70.60;;;;;;5001665;28;20501;-62
2021/05/08 00:35:09;;;;;;;9.15;3.95;;;13.10;70.60;;;;;;4990102;28;20030;-62
2021/05/08 00:37:34;;;;;;;12.02;3.88;;;13.10;70.60;;;;;;5004577;28;20026;-63
2021/05/08 00:40:00;;;;;;;10.73;4.68;;;13.10;70.70;;;;;;5001802;28;20120;-64
2021/05/08 00:42:25;;;;;;;9.25;4.10;;;13.10;70.70;;;;;;5003053;28;20454;-64
2021/05/08 00:44:51;;;;;;;9.07;4.18;;;13.00;70.70;;;;;;4998017;28;20056;-61
2021/05/08 00:47:16;;;;;;;10.55;4.35;;;13.00;70.80;;;;;;5030288;28;20364;-63
2021/05/08 00:49:42;;;;;;;9.02;4.18;;;13.00;70.80;;;;;;5031022;28;20025;-61
2021/05/08 00:52:07;;;;;;;9.18;3.50;;;13.00;70.90;;;;;;5011766;28;20065;-64
2021/05/08 00:54:33;;;;;;;9.52;3.50;;;13.00;71.00;;;;;;5031306;28;20131;-61
2021/05/08 00:56:59;;;;;;;7.00;3.28;;;12.90;71.00;;;;;;5028135;28;20049;-62
2021/05/08 00:59:24;;;;;;;6.93;3.70;;;12.90;71.10;;;;;;5032167;28;20110;-63
2021/05/08 01:01:50;;;;;;;7.68;3.60;;;12.90;71.10;;;;;;5027283;28;20038;-61
2021/05/08 01:04:15;;;;;;;8.27;3.65;;;12.90;71.20;;;;;;5011900;28;20116;-63
2021/05/08 01:06:41;;;;;;;9.57;3.72;;;12.90;71.30;;;;;;5039086;28;20029;-64
2021/05/08 01:09:07;;;;;;;8.30;4.13;;;12.80;71.30;;;;;;5018419;28;20030;-62
2021/05/08 01:11:33;;;;;;;5.82;3.28;;;12.90;71.40;;;;;;5037363;28;20037;-63
2021/05/08 01:13:58;;;;;;;5.82;3.35;;;12.80;71.40;;;;;;5028852;28;20118;-62
2021/05/08 01:16:24;;;;;;;5.53;3.72;;;12.80;71.60;;;;;;5041710;28;20037;-61
2021/05/08 01:18:52;;;;;;;8.80;4.25;;;12.80;71.60;;;;;;4995887;28;20060;-64
2021/05/08 01:21:20;;;;;;;5.70;3.47;;;12.70;71.60;;;;;;5026318;28;20040;-62
2021/05/08 01:23:47;;;;;;;8.07;4.00;;;12.70;71.70;;;;;;5023654;28;20063;-62
2021/05/08 01:26:12;;;;;;;5.78;3.30;;;12.70;71.80;;;;;;5035404;28;20025;-64
2021/05/08 01:28:38;;;;;;;7.63;3.17;;;12.70;71.90;;;;;;5032539;28;20357;-61
2021/05/08 01:31:03;;;;;;;5.82;3.45;;;12.70;71.90;;;;;;5044047;28;20060;-65
2021/05/08 01:33:29;;;;;;;6.00;3.83;;;12.70;72.00;;;;;;5028914;28;20090;-64
2021/05/08 01:35:54;;;;;;;7.60;3.72;;;12.70;72.10;;;;;;5036303;28;20390;-62
2021/05/08 01:38:20;;;;;;;9.18;3.80;;;12.60;72.10;;;;;;5032953;28;20029;-64
2021/05/08 01:40:46;;;;;;;9.23;3.70;;;12.60;72.10;;;;;;5040301;28;20025;-63
2021/05/08 01:43:11;;;;;;;6.65;3.80;;;12.60;72.20;;;;;;5046077;28;20032;-61
2021/05/08 01:45:38;;;;;;;6.80;3.10;;;12.50;72.20;;;;;;5026239;28;20040;-63
2021/05/08 01:48:04;;;;;;;5.30;3.30;;;12.50;72.30;;;;;;5024122;28;20041;-63
2021/05/08 01:50:29;;;;;;;4.75;3.28;;;12.60;72.30;;;;;;5026201;28;20064;-63
2021/05/08 01:52:55;;;;;;;5.85;3.17;;;12.50;72.40;;;;;;5032924;28;20068;-61
2021/05/08 01:55:25;;;;;;;6.63;3.70;;;12.50;72.50;;;;;;5027640;28;20044;-61
2021/05/08 01:57:52;;;;;;;6.85;3.28;;;12.50;72.50;;;;;;5022986;28;20426;-62
2021/05/08 02:00:21;;;;;;;6.18;3.33;;;12.50;72.50;;;;;;5004972;28;20021;-62
2021/05/08 02:02:47;;;;;;;5.82;3.35;;;12.40;72.60;;;;;;5041353;28;20051;-63
2021/05/08 02:05:12;;;;;;;3.85;2.78;;;12.40;72.70;;;;;;5028314;28;20021;-62
2021/05/08 02:07:38;;;;;;;6.97;3.67;;;12.40;72.80;;;;;;5008831;28;20036;-62
2021/05/08 02:10:05;;;;;;;6.55;3.10;;;12.40;72.80;;;;;;5022008;28;20036;-63
2021/05/08 02:12:31;;;;;;;5.20;2.80;;;12.40;72.80;;;;;;5011990;28;20094;-62
2021/05/08 02:14:56;;;;;;;8.32;3.05;;;12.40;72.80;;;;;;5027866;28;20038;-62
2021/05/08 02:17:22;;;;;;;5.35;3.38;;;12.30;72.90;;;;;;5043500;28;20025;-63
2021/05/08 02:19:47;;;;;;;5.60;3.22;;;12.30;72.90;;;;;;5042132;28;20037;-63
2021/05/08 02:22:13;;;;;;;4.20;2.90;;;12.50;73.10;;;;;;5034905;28;20029;-63
2021/05/08 02:24:38;;;;;;;3.42;3.03;;;12.20;72.90;;;;;;5026988;28;20021;-61
2021/05/08 02:27:04;;;;;;;4.13;2.85;;;12.20;72.90;;;;;;5036033;28;20476;-61
2021/05/08 02:29:30;;;;;;;5.85;3.25;;;12.20;73.00;;;;;;5020484;28;20079;-62
2021/05/08 02:31:55;;;;;;;4.68;2.80;;;12.20;73.10;;;;;;5037572;28;20033;-63
2021/05/08 02:34:21;;;;;;;4.30;3.00;;;12.20;73.20;;;;;;5036196;28;20053;-62
2021/05/08 02:36:46;;;;;;;3.67;2.80;;;12.20;73.10;;;;;;5010058;28;20174;-62
2021/05/08 02:39:12;;;;;;;5.68;2.95;;;12.10;73.10;;;;;;5036690;28;20030;-61
2021/05/08 02:41:37;;;;;;;3.95;2.92;;;12.10;73.20;;;;;;5015240;28;20037;-64
2021/05/08 02:44:03;;;;;;;4.88;3.20;;;12.10;73.30;;;;;;5038918;28;20048;-64
2021/05/08 02:46:29;;;;;;;3.65;2.90;;;12.10;73.40;;;;;;5018773;28;20045;-62
2021/05/08 02:48:54;;;;;;;5.90;3.17;;;12.10;73.40;;;;;;5039563;28;20495;-63
2021/05/08 02:51:20;;;;;;;11.15;3.55;;;12.00;73.40;;;;;;5033302;28;20049;-62
2021/05/08 02:53:45;;;;;;;8.10;3.38;;;12.00;73.50;;;;;;5040908;28;20366;-64
2021/05/08 02:56:11;;;;;;;7.93;3.50;;;11.90;73.50;;;;;;5036805;28;20051;-63
2021/05/08 02:58:36;;;;;;;6.60;3.33;;;12.00;73.60;;;;;;5040465;28;20030;-63
2021/05/08 03:01:02;;;;;;;7.43;3.22;;;11.90;73.60;;;;;;5045906;28;20087;-62
2021/05/08 03:03:27;;;;;;;8.80;3.20;;;11.90;73.60;;;;;;5030096;28;20037;-61
2021/05/08 03:05:54;;;;;;;8.27;3.25;;;12.00;73.70;;;;;;5021674;28;20029;-61
2021/05/08 03:08:19;;;;;;;11.43;3.33;;;11.90;73.70;;;;;;5041731;28;20500;-62
2021/05/08 03:10:45;;;;;;;5.03;3.75;;;11.90;73.80;;;;;;5040503;28;20032;-61
2021/05/08 03:13:11;;;;;;;7.13;4.22;;;11.80;73.80;;;;;;5030943;28;20061;-63
2021/05/08 03:15:36;;;;;;;5.80;4.05;;;11.80;74.00;;;;;;5025927;28;20108;-63
2021/05/08 03:18:03;;;;;;;8.15;4.53;;;11.80;74.00;;;;;;5025290;28;20024;-63
2021/05/08 03:20:28;;;;;;;6.75;4.40;;;11.80;74.10;;;;;;5043485;28;20021;-61
2021/05/08 03:22:54;;;;;;;7.57;4.65;;;11.70;74.00;;;;;;5025707;28;20025;-64
2021/05/08 03:25:19;;;;;;;7.43;3.80;;;11.70;74.00;;;;;;5027774;28;20100;-64
2021/05/08 03:27:45;;;;;;;6.55;3.58;;;11.70;74.20;;;;;;5036055;28;20033;-61
2021/05/08 03:30:11;;;;;;;9.25;4.03;;;11.70;74.20;;;;;;5025620;28;20464;-63
2021/05/08 03:32:36;;;;;;;8.73;3.90;;;11.60;74.20;;;;;;5025185;28;20021;-61
2021/05/08 03:35:02;;;;;;;5.97;4.47;;;11.70;74.20;;;;;;5009290;28;20510;-62
2021/05/08 03:37:28;;;;;;;6.07;3.45;;;11.60;74.20;;;;;;5021605;28;20391;-65
2021/05/08 03:39:53;;;;;;;5.03;3.75;;;11.60;74.30;;;;;;5026809;28;20025;-63
2021/05/08 03:42:19;;;;;;;8.18;3.95;;;11.60;74.30;;;;;;5024231;28;20416;-63
2021/05/08 03:44:44;;;;;;;5.03;3.83;;;11.60;74.30;;;;;;5042935;28;20032;-61
2021/05/08 03:47:10;;;;;;;4.63;3.45;;;11.50;74.30;;;;;;5018824;28;20080;-62
2021/05/08 03:49:37;;;;;;;4.53;3.72;;;11.50;74.40;;;;;;5041204;28;20025;-64
2021/05/08 03:52:03;;;;;;;6.47;3.45;;;11.50;74.40;;;;;;5024267;28;20040;-62
2021/05/08 03:54:29;;;;;;;6.43;3.53;;;11.50;74.50;;;;;;5029355;28;20047;-63
2021/05/08 03:56:56;;;;;;;4.88;3.22;;;11.50;74.50;;;;;;5007337;28;20009;-62
2021/05/08 03:59:21;;;;;;;5.95;2.97;;;11.40;74.50;;;;;;5025643;28;20374;-63
2021/05/08 04:01:47;;;;;;;4.68;3.47;;;11.40;74.50;;;;;;5039578;28;20084;-63
2021/05/08 04:04:12;;;;;;;4.03;3.10;;;11.40;74.50;;;;;;5038661;28;20086;-60
2021/05/08 04:06:38;;;;;;;129.10;15.55;;;11.40;74.60;;;;;;5035775;28;20707;-62
2021/05/08 04:09:05;;;;;;;62.17;9.32;;;11.40;74.60;;;;;;5029560;28;20124;-61
2021/05/08 04:11:30;;;;;;;133.10;12.48;;;11.30;74.60;;;;;;5033515;28;20065;-64
2021/05/08 04:13:55;;;;;;;75.95;10.10;;;11.30;74.70;;;;;;5029406;28;20029;-62
2021/05/08 04:16:21;;;;;;;64.10;9.77;;;11.30;74.70;;;;;;5028809;28;20500;-61
2021/05/08 04:18:47;;;;;;;60.83;9.43;;;11.30;74.70;;;;;;5030508;28;20045;-62
2021/05/08 04:21:12;;;;;;;60.90;8.35;;;11.30;74.80;;;;;;5021708;28;20033;-61
2021/05/08 04:23:38;;;;;;;83.43;9.25;;;11.20;74.80;;;;;;5029475;28;20391;-62
2021/05/08 04:26:03;;;;;;;74.07;10.68;;;11.20;74.80;;;;;;5032069;28;20426;-61
2021/05/08 04:28:28;;;;;;;79.65;8.68;;;11.20;74.80;;;;;;5020742;28;20041;-63
2021/05/08 04:30:54;;;;;;;56.03;8.25;;;11.20;74.90;;;;;;5037352;28;20045;-62
2021/05/08 04:33:20;;;;;;;94.22;11.82;;;11.20;74.90;;;;;;5041568;28;20021;-64
2021/05/08 04:35:45;;;;;;;193.77;16.10;;;11.20;74.90;;;;;;5020328;28;20021;-61
2021/05/08 04:38:11;;;;;;;304.73;27.10;;;11.10;75.00;;;;;;5025185;28;20024;-62
2021/05/08 04:40:36;;;;;;;258.05;22.60;;;11.20;75.10;;;;;;5038607;28;20109;-61
2021/05/08 04:43:02;;;;;;;286.60;25.50;;;11.10;75.10;;;;;;5021770;28;20436;-61
2021/05/08 04:45:27;;;;;;;277.88;28.48;;;11.10;75.20;;;;;;5034446;28;20487;-62
2021/05/08 04:47:54;;;;;;;290.55;26.55;;;11.10;75.20;;;;;;5040149;28;20524;-64
2021/05/08 04:50:20;;;;;;;566.88;51.47;;;11.10;75.20;;;;;;5026307;28;20036;-62
2021/05/08 04:52:45;;;;;;;571.40;48.75;;;11.10;75.40;;;;;;5020757;28;20025;-63
2021/05/08 04:55:11;;;;;;;627.92;60.22;;;11.10;75.70;;;;;;5034263;28;20037;-61
2021/05/08 04:57:38;;;;;;;751.47;72.82;;;11.10;75.80;;;;;;5029481;28;20063;-62
2021/05/08 05:00:04;;;;;;;454.30;41.15;;;11.10;75.80;;;;;;5030650;28;20473;-61
2021/05/08 05:02:30;;;;;;;473.73;41.42;;;11.10;75.90;;;;;;5024122;28;20423;-63
2021/05/08 05:04:55;;;;;;;388.00;33.97;;;11.00;75.90;;;;;;5002442;28;20079;-61
2021/05/08 05:07:21;;;;;;;375.77;33.38;;;11.00;76.00;;;;;;5029810;28;20087;-60
2021/05/08 05:09:46;;;;;;;343.80;31.48;;;11.00;76.00;;;;;;5033449;28;20045;-62
2021/05/08 05:12:12;;;;;;;361.73;32.58;;;11.00;76.00;;;;;;5036628;28;20056;-62
2021/05/08 05:14:37;;;;;;;319.95;31.35;;;11.00;76.00;;;;;;5020341;28;20479;-62
2021/05/08 05:17:03;;;;;;;273.17;27.77;;;11.00;76.00;;;;;;5000616;28;20435;-62
2021/05/08 05:19:28;;;;;;;286.38;26.13;;;11.00;76.10;;;;;;5035568;28;20298;-63
2021/05/08 05:21:54;;;;;;;325.60;30.02;;;11.00;76.00;;;;;;5044403;28;20120;-63
2021/05/08 05:24:19;;;;;;;247.43;23.45;;;11.00;75.90;;;;;;5040032;28;20025;-61
2021/05/08 05:26:45;;;;;;;252.40;24.45;;;11.00;76.00;;;;;;5040552;28;20029;-63
2021/05/08 05:29:10;;;;;;;244.15;23.83;;;11.10;76.00;;;;;;5020871;28;20026;-62
2021/05/08 05:31:39;;;;;;;239.15;24.20;;;11.00;75.80;;;;;;5036757;28;20040;-63
2021/05/08 05:34:05;;;;;;;237.18;23.05;;;11.00;75.90;;;;;;5035722;28;20083;-62
2021/05/08 05:36:31;;;;;;;235.02;22.83;;;11.00;75.90;;;;;;5023319;28;20135;-61
2021/05/08 05:38:58;;;;;;;211.65;21.13;;;11.00;75.90;;;;;;5027587;28;20029;-63
2021/05/08 05:41:23;;;;;;;201.93;22.40;;;11.00;76.00;;;;;;5044433;28;20171;-64
2021/05/08 05:43:49;;;;;;;187.73;21.38;;;11.00;76.00;;;;;;5038321;28;20017;-63
2021/05/08 05:46:14;;;;;;;199.25;19.35;;;11.00;76.10;;;;;;5022109;28;20053;-64
2021/05/08 05:48:40;;;;;;;212.50;23.73;;;11.00;76.10;;;;;;5044463;28;20094;-64
2021/05/08 05:51:07;;;;;;;205.00;18.90;;;11.00;76.30;;;;;;5041525;28;20106;-60
2021/05/08 05:53:33;;;;;;;214.38;22.83;;;11.10;76.50;;;;;;5023551;28;20423;-62
2021/05/08 05:55:58;;;;;;;176.57;21.38;;;11.00;76.60;;;;;;5029869;28;20025;-61
2021/05/08 05:58:24;;;;;;;164.07;18.70;;;11.00;76.60;;;;;;5043657;28;20716;-64
2021/05/08 06:00:49;;;;;;;183.40;18.77;;;11.00;76.60;;;;;;5041390;28;20041;-62
2021/05/08 06:03:15;;;;;;;158.60;18.02;;;11.10;76.60;;;;;;5035002;28;20100;-64
2021/05/08 06:05:40;;;;;;;138.80;16.00;;;11.10;76.80;;;;;;5038308;28;20253;-61
2021/05/08 06:08:10;;;;;;;143.35;18.67;;;11.10;76.60;;;;;;5037232;28;20436;-64
2021/05/08 06:10:35;;;;;;;125.65;13.98;;;11.10;76.50;;;;;;5023627;28;22312;-63
2021/05/08 06:13:01;;;;;;;122.68;14.77;;;11.10;76.40;;;;;;5032020;28;20072;-61
2021/05/08 06:15:26;;;;;;;131.98;15.93;;;11.10;76.40;;;;;;5032777;28;20117;-62
2021/05/08 06:17:52;;;;;;;130.38;13.93;;;11.10;76.50;;;;;;5019846;28;20109;-62
2021/05/08 06:20:17;;;;;;;123.25;13.70;;;11.10;76.50;;;;;;5047022;28;20032;-64
2021/05/08 06:22:43;;;;;;;144.32;15.48;;;11.10;76.60;;;;;;5034680;28;20033;-62
2021/05/08 06:25:10;;;;;;;104.20;13.63;;;11.10;76.70;;;;;;5033853;28;20041;-63
2021/05/08 06:27:35;;;;;;;97.47;12.23;;;11.10;76.60;;;;;;5043930;28;20029;-61
2021/05/08 06:30:01;;;;;;;104.22;12.73;;;11.10;76.60;;;;;;5030060;28;20064;-61
2021/05/08 06:32:26;;;;;;;101.43;12.27;;;11.10;76.60;;;;;;5033337;28;20037;-62
2021/05/08 06:34:53;;;;;;;100.95;11.35;;;11.10;76.50;;;;;;5035845;28;20040;-64
2021/05/08 06:37:18;;;;;;;70.68;10.40;;;11.20;76.50;;;;;;5029713;28;20037;-61
2021/05/08 06:39:44;;;;;;;81.75;11.88;;;11.20;76.50;;;;;;5029079;28;20523;-61
2021/05/08 06:42:10;;;;;;;81.10;12.40;;;11.20;76.50;;;;;;5019231;28;20029;-62
2021/05/08 06:44:35;;;;;;;77.88;9.90;;;11.20;76.50;;;;;;5012081;28;20112;-63
2021/05/08 06:47:01;;;;;;;79.28;10.90;;;11.20;77.10;;;;;;5019995;28;20124;-62
2021/05/08 06:49:26;;;;;;;80.82;11.13;;;11.20;76.40;;;;;;5041588;28;20434;-62
2021/05/08 06:51:52;;;;;;;57.10;9.20;;;11.20;76.40;;;;;;5036422;28;20091;-63
2021/05/08 06:54:17;;;;;;;66.03;11.35;;;11.30;76.40;;;;;;5035451;28;20079;-62
2021/05/08 06:56:43;;;;;;;75.22;10.50;;;11.30;76.40;;;;;;5017385;28;20040;-60
2021/05/08 06:59:09;;;;;;;79.93;10.98;;;11.30;76.30;;;;;;5030793;28;20024;-63
2021/05/08 07:01:34;;;;;;;62.05;9.52;;;11.30;76.30;;;;;;5031346;28;20034;-62
2021/05/08 07:04:00;;;;;;;62.30;9.30;;;11.30;76.30;;;;;;5032803;28;20295;-63
2021/05/08 07:06:26;;;;;;;50.50;8.38;;;11.30;76.40;;;;;;5030618;28;20109;-63
2021/05/08 07:08:52;;;;;;;60.22;8.88;;;11.30;76.50;;;;;;5036035;28;20571;-63
2021/05/08 07:11:18;;;;;;;61.05;8.90;;;11.30;76.60;;;;;;5012081;28;20029;-63
2021/05/08 07:13:43;;;;;;;42.22;9.07;;;11.30;76.70;;;;;;5021803;28;20037;-62
2021/05/08 07:16:09;;;;;;;47.88;7.80;;;11.30;76.90;;;;;;5021164;28;20037;-63
2021/05/08 07:18:34;;;;;;;54.22;7.68;;;11.30;76.90;;;;;;5035760;28;20033;-64
2021/05/08 07:21:00;;;;;;;44.97;8.25;;;11.30;76.80;;;;;;5003117;28;20382;-62
2021/05/08 07:23:25;;;;;;;57.50;7.68;;;11.30;76.90;;;;;;5037587;28;20573;-63
2021/05/08 07:25:51;;;;;;;37.90;6.40;;;11.30;76.90;;;;;;5040182;28;20041;-63
2021/05/08 07:28:19;;;;;;;47.75;7.78;;;11.30;77.00;;;;;;5026552;28;20045;-62
2021/05/08 07:30:45;;;;;;;46.20;7.78;;;11.30;77.20;;;;;;5038813;28;20060;-60
2021/05/08 07:33:11;;;;;;;36.55;6.07;;;11.30;77.20;;;;;;5027076;28;20396;-63
2021/05/08 07:35:37;;;;;;;36.88;6.90;;;11.30;77.30;;;;;;5018171;28;20311;-62
2021/05/08 07:38:03;;;;;;;37.20;6.90;;;11.30;77.10;;;;;;5024048;28;20043;-61
2021/05/08 07:40:30;;;;;;;26.10;5.97;;;11.30;77.20;;;;;;5009380;28;20529;-64
2021/05/08 07:42:59;;;;;;;13.38;4.50;;;11.30;77.30;;;;;;5018800;28;20090;-61
2021/05/08 07:45:25;;;;;;;26.15;5.13;;;11.30;77.80;;;;;;5022803;28;20032;-64
2021/05/08 07:47:50;;;;;;;27.20;4.80;;;11.30;77.40;;;;;;5028401;28;20413;-63
2021/05/08 07:50:16;;;;;;;23.73;3.75;;;11.30;77.50;;;;;;5018532;28;20026;-61
2021/05/08 07:52:42;;;;;;;19.27;4.47;;;11.30;77.50;;;;;;5015665;28;20082;-61
2021/05/08 07:55:08;;;;;;;14.30;4.25;;;11.30;77.30;;;;;;5030216;28;20040;-62
2021/05/08 07:57:33;;;;;;;21.58;4.50;;;11.30;77.30;;;;;;5018831;28;20484;-61
2021/05/08 07:59:59;;;;;;;16.60;3.80;;;11.30;77.20;;;;;;5018621;28;20381;-61
2021/05/08 08:02:24;;;;;;;12.75;3.67;;;11.30;77.20;;;;;;5033577;28;20572;-62
2021/05/08 08:04:50;;;;;;;18.52;3.88;;;11.30;77.30;;;;;;5021470;28;20472;-61
2021/05/08 08:07:15;;;;;;;11.20;3.20;;;11.30;77.30;;;;;;5032965;28;20043;-63
2021/05/08 08:09:42;;;;;;;9.73;3.40;;;11.40;77.70;;;;;;5032333;28;20029;-63
2021/05/08 08:12:09;;;;;;;11.23;2.90;;;11.40;77.90;;;;;;4997927;28;20052;-64
2021/05/08 08:14:34;;;;;;;8.80;2.60;;;11.40;78.10;;;;;;5035604;28;20082;-61
2021/05/08 08:17:00;;;;;;;11.80;2.85;;;11.40;78.10;;;;;;5028479;28;20029;-60
2021/05/08 08:19:25;;;;;;;14.30;2.90;;;11.40;78.10;;;;;;5035526;28;20041;-63
2021/05/08 08:21:51;;;;;;;24.02;3.45;;;11.50;78.30;;;;;;5027540;28;20084;-61
2021/05/08 08:24:16;;;;;;;18.42;3.08;;;11.50;78.00;;;;;;5019868;28;20377;-61
2021/05/08 08:26:42;;;;;;;41.13;4.53;;;11.50;78.10;;;;;;5021764;28;20029;-62
2021/05/08 08:29:08;;;;;;;43.15;5.03;;;11.50;78.00;;;;;;5028837;28;20053;-64
2021/05/08 08:31:33;;;;;;;31.58;5.65;;;11.60;78.20;;;;;;5021947;28;20053;-63
2021/05/08 08:33:59;;;;;;;62.88;5.15;;;11.60;78.10;;;;;;5021539;28;20041;-63
2021/05/08 08:36:24;;;;;;;66.47;8.50;;;11.60;78.00;;;;;;5022634;28;20021;-63
2021/05/08 08:38:50;;;;;;;156.93;15.80;;;11.70;77.90;;;;;;5031334;28;20026;-61
2021/05/08 08:41:15;;;;;;;543.10;49.67;;;11.70;77.90;;;;;;5004789;28;20077;-62
2021/05/08 08:43:42;;;;;;;53.20;6.82;;;11.80;78.10;;;;;;5012193;28;20454;-61
2021/05/08 08:46:09;;;;;;;33.25;4.95;;;11.80;78.00;;;;;;5008678;28;20050;-63
2021/05/08 08:48:34;;;;;;;62.45;7.57;;;11.80;78.00;;;;;;4986812;28;20085;-62
2021/05/08 08:51:00;;;;;;;56.95;6.65;;;11.90;78.10;;;;;;4979405;28;20026;-62
2021/05/08 08:53:25;;;;;;;51.80;5.47;;;11.90;78.40;;;;;;5012235;28;20381;-64
2021/05/08 08:55:54;;;;;;;68.93;9.35;;;12.00;78.20;;;;;;5001317;28;20050;-61
2021/05/08 08:58:25;;;;;;;113.38;9.95;;;12.00;78.10;;;;;;4986738;28;20141;-64
2021/05/08 09:00:51;;;;;;;68.55;7.95;;;12.10;78.40;;;;;;5007735;28;20180;-62
2021/05/08 09:03:16;;;;;;;68.95;8.70;;;12.10;78.30;;;;;;5003471;28;20106;-62
2021/05/08 09:05:42;;;;;;;79.50;8.30;;;12.10;78.10;;;;;;4996401;28;20113;-62
2021/05/08 09:08:09;;;;;;;34.90;4.75;;;12.20;78.10;;;;;;4995474;28;20041;-62
2021/05/08 09:10:35;;;;;;;38.60;4.88;;;12.20;77.90;;;;;;5002314;28;20117;-64
2021/05/08 09:13:04;;;;;;;45.97;5.93;;;12.30;78.20;;;;;;4988006;28;20121;-64
2021/05/08 09:15:37;;;;;;;76.43;5.53;;;12.40;78.00;;;;;;4989889;28;20022;-61
2021/05/08 09:18:03;;;;;;;42.75;6.88;;;12.40;77.90;;;;;;5001205;28;20465;-61
2021/05/08 09:20:50;;;;;;;42.10;7.07;;;12.40;77.80;;;;;;5009080;28;20080;-62
2021/05/08 09:23:29;;;;;;;88.50;7.82;;;12.50;77.80;;;;;;4993860;28;20043;-61
2021/05/08 09:25:58;;;;;;;42.45;6.82;;;12.50;77.80;;;;;;4995983;28;20111;-62
2021/05/08 09:28:24;;;;;;;73.57;8.13;;;12.60;77.50;;;;;;4996888;28;20446;-61
2021/05/08 09:30:49;;;;;;;82.45;9.18;;;12.60;77.60;;;;;;4991232;28;20038;-61
2021/05/08 09:33:22;;;;;;;70.22;7.65;;;12.70;77.50;;;;;;4995382;28;20022;-63
2021/05/08 09:36:20;;;;;;;50.83;6.07;;;12.70;77.20;;;;;;4998309;28;20133;-63
2021/05/08 09:38:46;;;;;;;61.42;7.28;;;12.70;76.70;;;;;;4987053;28;20534;-62
2021/05/08 09:41:15;;;;;;;59.33;6.53;;;12.70;76.40;;;;;;4999130;28;20076;-63
2021/05/08 09:43:41;;;;;;;51.30;5.47;;;12.80;76.70;;;;;;4998266;28;20030;-63
2021/05/08 09:46:07;;;;;;;19.05;4.22;;;12.80;75.50;;;;;;4978000;28;20112;-62
2021/05/08 09:48:36;;;;;;;48.38;5.82;;;12.90;74.70;;;;;;5014862;28;20134;-63
2021/05/08 09:51:15;;;;;;;53.72;5.90;;;13.00;75.00;;;;;;5021876;28;20021;-61
2021/05/08 09:53:41;;;;;;;51.35;6.13;;;13.00;74.90;;;;;;5014660;28;20498;-64
2021/05/08 09:56:07;;;;;;;68.43;8.32;;;13.00;74.30;;;;;;5004861;28;20026;-61
2021/05/08 09:58:33;;;;;;;44.00;5.82;;;13.10;74.80;;;;;;5003083;28;20064;-62
2021/05/08 10:00:58;;;;;;;53.03;6.18;;;13.10;74.60;;;;;;5015760;28;20022;-62
2021/05/08 10:03:24;;;;;;;62.63;5.50;;;13.20;73.80;;;;;;5023468;28;20052;-64
2021/05/08 10:06:08;;;;;;;54.25;5.25;;;13.20;73.60;;;;;;5021347;28;20481;-62
2021/05/08 10:08:33;;;;;;;16.67;2.90;;;13.20;73.40;;;;;;5012525;28;20040;-62
2021/05/08 10:10:59;;;;;;;30.75;3.95;;;13.30;71.20;;;;;;5019986;28;20490;-64
2021/05/08 10:13:27;;;;;;;40.17;3.60;;;13.30;71.00;;;;;;4997161;28;20254;-61
2021/05/08 10:15:52;;;;;;;29.73;3.67;;;13.30;71.40;;;;;;5005581;28;20520;-61
2021/05/08 10:18:18;;;;;;;58.08;5.72;;;13.40;70.60;;;;;;4996307;28;20121;-63
2021/05/08 10:20:43;;;;;;;62.15;7.38;;;13.40;71.30;;;;;;5000816;28;20290;-62
2021/05/08 10:23:12;;;;;;;43.60;4.07;;;13.40;71.20;;;;;;5013248;28;20034;-61
2021/05/08 10:25:38;;;;;;;47.53;5.05;;;13.50;71.20;;;;;;5023981;28;20075;-61
2021/05/08 10:28:04;;;;;;;23.48;3.28;;;13.50;71.00;;;;;;5013969;28;20018;-62
2021/05/08 10:30:36;;;;;;;37.35;4.65;;;13.50;70.30;;;;;;5013532;28;20034;-63
2021/05/08 10:33:13;;;;;;;38.45;4.20;;;13.60;70.10;;;;;;5000639;28;20029;-64
2021/05/08 10:35:45;;;;;;;22.08;2.30;;;13.60;69.50;;;;;;5003190;28;20047;-63
2021/05/08 10:38:26;;;;;;;46.22;4.25;;;13.70;68.70;;;;;;5021907;28;20037;-63
2021/05/08 10:40:53;;;;;;;42.00;5.68;;;13.80;69.10;;;;;;5007151;28;20056;-62
2021/05/08 10:43:38;;;;;;;48.53;5.90;;;13.80;69.50;;;;;;5025585;28;20041;-63
2021/05/08 10:46:04;;;;;;;47.65;5.45;;;13.90;70.00;;;;;;5017932;28;20578;-64
2021/05/08 10:48:30;;;;;;;39.00;4.03;;;13.90;69.90;;;;;;5012327;28;20091;-62
2021/05/08 10:50:58;;;;;;;42.22;4.30;;;14.00;69.70;;;;;;5007455;28;20076;-62
2021/05/08 10:53:42;;;;;;;37.15;4.93;;;14.10;69.20;;;;;;5019999;28;20028;-64
2021/05/08 10:56:28;;;;;;;32.42;4.07;;;14.10;68.50;;;;;;5027677;28;20128;-62
2021/05/08 10:59:05;;;;;;;26.95;3.63;;;14.20;68.60;;;;;;5022673;28;20088;-64
2021/05/08 11:01:41;;;;;;;22.40;3.88;;;14.20;68.30;;;;;;5030605;28;20017;-61
2021/05/08 11:04:06;;;;;;;22.92;3.15;;;14.30;68.10;;;;;;5023503;28;20075;-61
2021/05/08 11:06:32;;;;;;;20.75;3.33;;;14.40;67.70;;;;;;5043873;28;20063;-62
2021/05/08 11:08:57;;;;;;;36.72;4.10;;;14.50;67.50;;;;;;5035777;28;20059;-64
2021/05/08 11:11:25;;;;;;;49.83;5.25;;;14.50;67.10;;;;;;5026138;28;20041;-63
2021/05/08 11:13:56;;;;;;;38.38;4.50;;;14.60;66.40;;;;;;5011689;28;20016;-63
2021/05/08 11:16:25;;;;;;;36.55;4.07;;;14.70;66.00;;;;;;5030916;28;20017;-62
2021/05/08 11:18:55;;;;;;;40.63;4.38;;;14.80;66.20;;;;;;5045539;28;20020;-62
2021/05/08 11:21:23;;;;;;;34.92;3.83;;;14.80;65.70;;;;;;5022667;28;20139;-63
2021/05/08 11:23:52;;;;;;;28.52;3.63;;;14.90;65.50;;;;;;5030989;28;20041;-61
2021/05/08 11:28:58;;;;;;;21.55;3.33;;;15.20;64.80;;;;;;5038551;28;20041;-63
2021/05/08 11:31:28;;;;;;;102.95;9.55;;;15.30;64.60;;;;;;5022583;28;20025;-61
2021/05/08 11:34:15;;;;;;;36.58;4.28;;;15.40;64.40;;;;;;5021493;28;20029;-63
2021/05/08 11:37:00;;;;;;;45.70;4.15;;;15.50;63.70;;;;;;5024098;28;20052;-62
2021/05/08 11:39:39;;;;;;;21.17;2.92;;;15.60;63.90;;;;;;5022522;28;20022;-63
2021/05/08 11:42:17;;;;;;;16.00;2.15;;;15.70;63.40;;;;;;5004296;28;20484;-61
2021/05/08 11:44:44;;;;;;;32.88;3.15;;;15.80;62.50;;;;;;5019460;28;20437;-62
2021/05/08 11:47:28;;;;;;;25.27;2.35;;;15.90;62.20;;;;;;5016250;28;20508;-64
2021/05/08 11:50:13;;;;;;;25.55;2.75;;;16.00;61.80;;;;;;5022406;28;20036;-64
2021/05/08 11:52:49;;;;;;;19.88;3.00;;;16.10;61.70;;;;;;5015023;28;20535;-62
2021/05/08 11:55:20;;;;;;;33.88;2.83;;;16.30;62.00;;;;;;5022247;28;20033;-63
2021/05/08 11:57:57;;;;;;;40.22;4.28;;;16.30;61.80;;;;;;5044970;28;20031;-60
2021/05/08 12:00:24;;;;;;;47.80;5.05;;;16.40;61.80;;;;;;5029159;28;20025;-61
2021/05/08 12:02:50;;;;;;;26.05;4.55;;;16.50;61.30;;;;;;5023467;28;20619;-61
2021/05/08 12:05:16;;;;;;;45.53;3.85;;;16.60;61.20;;;;;;5010299;28;20013;-63
2021/05/08 12:07:42;;;;;;;44.45;4.50;;;16.70;61.00;;;;;;5025526;28;20036;-64
2021/05/08 12:10:14;;;;;;;36.20;4.45;;;16.70;61.00;;;;;;5022928;28;20064;-64
2021/05/08 12:12:48;;;;;;;40.28;4.88;;;16.80;61.00;;;;;;5031910;28;20064;-62
2021/05/08 12:15:24;;;;;;;64.40;5.18;;;16.90;61.20;;;;;;5027914;28;20590;-62
2021/05/08 12:17:52;;;;;;;27.80;5.20;;;17.00;61.00;;;;;;5035208;28;20031;-61
2021/05/08 12:20:31;;;;;;;32.10;3.40;;;17.10;60.70;;;;;;5035151;28;20063;-62
2021/05/08 12:23:01;;;;;;;51.83;5.72;;;17.20;60.00;;;;;;5021813;28;20751;-64
2021/05/08 12:25:27;;;;;;;45.60;4.10;;;17.30;60.10;;;;;;5014322;28;20021;-64
2021/05/08 12:28:15;;;;;;;37.20;4.50;;;17.30;60.00;;;;;;5024459;28;20036;-61
2021/05/08 12:30:41;;;;;;;40.15;3.95;;;17.40;59.80;;;;;;5027016;28;20060;-63
2021/05/08 12:33:26;;;;;;;51.13;4.78;;;17.50;59.60;;;;;;5036149;28;20061;-61
2021/05/08 12:35:53;;;;;;;48.80;5.63;;;17.60;59.60;;;;;;5031073;28;20115;-63
2021/05/08 12:38:21;;;;;;;37.17;4.60;;;17.60;59.30;;;;;;5021091;28;20028;-62